createdAt,value
2023-05-14T00:04:54.328Z,1008.2
2023-05-14T00:10:00.408Z,1008.2
2023-05-14T00:15:06.510Z,1008.1
2023-05-14T00:20:12.605Z,1008.2
2023-05-14T00:25:18.719Z,1008
2023-05-14T00:30:24.825Z,1008.1
2023-05-14T00:35:30.893Z,1008.1
2023-05-14T00:40:36.994Z,1008
2023-05-14T00:45:43.081Z,1008
2023-05-14T00:50:49.186Z,1008
2023-05-14T00:55:55.282Z,1008
2023-05-14T01:01:00.499Z,1008
2023-05-14T01:06:06.503Z,1008
2023-05-14T01:11:12.582Z,1008
2023-05-14T01:16:18.681Z,1008
2023-05-14T01:21:24.780Z,1008
2023-05-14T01:26:30.858Z,1008
2023-05-14T01:31:36.952Z,1008
2023-05-14T01:36:43.073Z,1008
2023-05-14T01:41:49.175Z,1007.9
2023-05-14T01:46:55.249Z,1008
2023-05-14T01:52:01.341Z,1007.9
2023-05-14T01:57:07.451Z,1007.9
2023-05-14T02:02:12.562Z,1007.9
2023-05-14T02:07:18.655Z,1007.9
2023-05-14T02:12:24.754Z,1007.8
2023-05-14T02:17:30.868Z,1007.8
2023-05-14T02:22:36.970Z,1007.7
2023-05-14T02:27:43.038Z,1007.7
2023-05-14T02:32:49.190Z,1007.6
2023-05-14T02:37:55.259Z,1007.6
2023-05-14T02:43:01.343Z,1007.7
2023-05-14T02:48:07.436Z,1007.7
2023-05-14T02:53:13.545Z,1007.6
2023-05-14T02:58:19.636Z,1007.7
2023-05-14T03:03:25.728Z,1007.6
2023-05-14T03:08:30.846Z,1007.6
2023-05-14T03:13:36.916Z,1007.6
2023-05-14T03:18:43.031Z,1007.6
2023-05-14T03:23:49.132Z,1007.5
2023-05-14T03:28:55.225Z,1007.5
2023-05-14T03:34:01.310Z,1007.5
2023-05-14T03:39:07.415Z,1007.5
2023-05-14T03:44:13.510Z,1007.4
2023-05-14T03:49:19.597Z,1007.4
2023-05-14T03:54:25.714Z,1007.4
2023-05-14T03:59:31.797Z,1007.4
2023-05-14T04:04:37.916Z,1007.4
2023-05-14T04:09:44.007Z,1007.4
2023-05-14T04:14:49.156Z,1007.3
2023-05-14T04:19:55.217Z,1007.4
2023-05-14T04:25:01.293Z,1007.3
2023-05-14T04:30:07.400Z,1007.3
2023-05-14T04:35:13.489Z,1007.3
2023-05-14T04:40:19.577Z,1007.3
2023-05-14T04:45:25.715Z,1007.3
2023-05-14T04:50:31.791Z,1007.3
2023-05-14T04:55:37.877Z,1007.3
2023-05-14T05:00:43.970Z,1007.3
2023-05-14T05:05:50.081Z,1007.3
2023-05-14T05:10:56.172Z,1007.3
2023-05-14T05:16:02.298Z,1007.4
2023-05-14T05:21:07.370Z,1007.4
2023-05-14T05:26:13.467Z,1007.3
2023-05-14T05:31:19.570Z,1007.3
2023-05-14T05:36:25.674Z,1007.3
2023-05-14T05:41:31.767Z,1007.3
2023-05-14T05:46:37.859Z,1007.3
2023-05-14T05:51:43.956Z,1007.2
2023-05-14T05:56:50.063Z,1007.2
2023-05-14T06:01:56.198Z,1007.2
2023-05-14T06:07:02.230Z,1007.1
2023-05-14T06:12:08.350Z,1007.2
2023-05-14T06:17:14.443Z,1007.3
2023-05-14T06:22:20.532Z,1007.3
2023-05-14T06:27:25.658Z,1007.2
2023-05-14T06:32:31.744Z,1007.2
2023-05-14T06:37:37.827Z,1007.2
2023-05-14T06:42:43.921Z,1007.1
2023-05-14T06:47:50.040Z,1007.1
2023-05-14T06:52:56.122Z,1007
2023-05-14T06:58:02.227Z,1006.9
2023-05-14T07:03:08.302Z,1006.9
2023-05-14T07:08:14.412Z,1006.9
2023-05-14T07:13:20.495Z,1006.9
2023-05-14T07:18:26.626Z,1006.9
2023-05-14T07:23:32.699Z,1006.9
2023-05-14T07:28:38.782Z,1006.8
2023-05-14T07:33:43.926Z,1006.8
2023-05-14T07:38:49.987Z,1006.7
2023-05-14T07:43:56.098Z,1006.6
2023-05-14T07:49:02.200Z,1006.5
2023-05-14T07:54:08.289Z,1006.5
2023-05-14T07:59:14.373Z,1006.4
2023-05-14T08:04:20.480Z,1006.5
2023-05-14T08:09:26.575Z,1006.5
2023-05-14T08:14:32.656Z,1006.4
2023-05-14T08:19:38.768Z,1006.3
2023-05-14T08:24:44.861Z,1006.3
2023-05-14T08:29:50.965Z,1006.3
2023-05-14T08:34:57.147Z,1006.2
2023-05-14T08:40:02.159Z,1006.2
2023-05-14T08:45:08.280Z,1006.2
2023-05-14T08:50:14.354Z,1006.2
2023-05-14T08:55:20.454Z,1006.1
2023-05-14T09:00:26.554Z,1006
2023-05-14T09:05:32.647Z,1006
2023-05-14T09:10:38.735Z,1006
2023-05-14T09:15:44.855Z,1006
2023-05-14T09:20:50.931Z,1005.9
2023-05-14T09:25:57.027Z,1005.8
2023-05-14T09:31:03.126Z,1005.9
2023-05-14T09:36:09.208Z,1005.8
2023-05-14T09:41:15.314Z,1005.8
2023-05-14T09:46:20.414Z,1005.7
2023-05-14T09:51:26.522Z,1005.7
2023-05-14T09:56:32.612Z,1005.6
2023-05-14T10:01:38.739Z,1005.4
2023-05-14T10:06:44.809Z,1005.4
2023-05-14T10:11:51.020Z,1005.3
2023-05-14T10:16:57.010Z,1005.3
2023-05-14T10:22:03.100Z,1005.2
2023-05-14T10:27:09.250Z,1005.2
2023-05-14T10:32:15.325Z,1005.2
2023-05-14T10:37:21.385Z,1005
2023-05-14T10:42:27.474Z,1005.1
2023-05-14T10:47:33.634Z,1004.9
2023-05-14T10:52:38.737Z,1004.9
2023-05-14T10:57:44.803Z,1004.8
2023-05-14T11:02:50.995Z,1004.9
2023-05-14T11:07:57.068Z,1004.8
2023-05-14T11:13:03.084Z,1004.7
2023-05-14T11:18:09.174Z,1004.8
2023-05-14T11:23:15.292Z,1004.6
2023-05-14T11:28:21.378Z,1004.6
2023-05-14T11:33:27.445Z,1004.6
2023-05-14T11:38:33.566Z,1004.5
2023-05-14T11:43:39.647Z,1004.5
2023-05-14T11:48:45.752Z,1004.5
2023-05-14T11:53:51.853Z,1004.5
2023-05-14T11:58:56.953Z,1004.5
2023-05-14T12:04:03.092Z,1004.4
2023-05-14T12:09:09.159Z,1004.4
2023-05-14T12:14:15.235Z,1004.3
2023-05-14T12:19:21.326Z,1004.3
2023-05-14T12:24:27.480Z,1004.3
2023-05-14T12:29:33.542Z,1004.2
2023-05-14T12:34:39.629Z,1004.2
2023-05-14T12:39:45.749Z,1004.2
2023-05-14T12:44:51.819Z,1004.2
2023-05-14T12:49:57.927Z,1004.1
2023-05-14T12:55:04.050Z,1004
2023-05-14T13:00:10.135Z,1003.9
2023-05-14T13:05:15.227Z,1004
2023-05-14T13:10:21.326Z,1003.9
2023-05-14T13:15:27.420Z,1003.9
2023-05-14T13:20:33.519Z,1003.8
2023-05-14T13:25:39.612Z,1003.8
2023-05-14T13:30:45.710Z,1003.7
2023-05-14T13:35:51.836Z,1003.6
2023-05-14T13:40:57.902Z,1003.6
2023-05-14T13:46:03.993Z,1003.5
2023-05-14T13:51:10.217Z,1003.5
2023-05-14T13:56:16.175Z,1003.5
2023-05-14T14:01:22.441Z,1003.5
2023-05-14T14:06:28.391Z,1003.5
2023-05-14T14:11:33.498Z,1003.4
2023-05-14T14:16:39.679Z,1003.3
2023-05-14T14:21:45.826Z,1003.3
2023-05-14T14:26:51.780Z,1003.3
2023-05-14T14:31:57.979Z,1003.2
2023-05-14T14:37:04.006Z,1003.2
2023-05-14T14:42:10.120Z,1003
2023-05-14T14:47:16.165Z,1003
2023-05-14T14:52:22.337Z,1002.9
2023-05-14T14:57:28.397Z,1002.9
2023-05-14T15:02:34.459Z,1002.8
2023-05-14T15:07:40.566Z,1002.7
2023-05-14T15:12:46.650Z,1002.8
2023-05-14T15:17:51.769Z,1002.7
2023-05-14T15:22:57.865Z,1002.7
2023-05-14T15:28:03.947Z,1002.6
2023-05-14T15:33:10.057Z,1002.6
2023-05-14T15:38:16.242Z,1002.5
2023-05-14T15:43:22.243Z,1002.5
2023-05-14T15:48:28.417Z,1002.4
2023-05-14T15:53:34.448Z,1002.5
2023-05-14T15:58:40.538Z,1002.4
2023-05-14T16:03:46.648Z,1002.4
2023-05-14T16:08:52.732Z,1002.4
2023-05-14T16:13:58.828Z,1002.3
2023-05-14T16:19:04.957Z,1002.3
2023-05-14T16:24:10.037Z,1002.3
2023-05-14T16:29:16.181Z,1002.3
2023-05-14T16:34:22.304Z,1002.3
2023-05-14T16:39:28.315Z,1002.3
2023-05-14T16:44:34.401Z,1002.3
2023-05-14T16:49:40.578Z,1002.3
2023-05-14T16:54:46.592Z,1002.2
2023-05-14T16:59:52.702Z,1002.2
2023-05-14T17:04:58.794Z,1002.2
2023-05-14T17:10:04.949Z,1002.2
2023-05-14T17:15:10.980Z,1002.3
2023-05-14T17:20:17.098Z,1002.3
2023-05-14T17:25:23.172Z,1002.2
2023-05-14T17:30:28.322Z,1002.2
2023-05-14T17:35:34.416Z,1002.2
2023-05-14T17:40:40.486Z,1002.2
2023-05-14T17:45:46.647Z,1002.2
2023-05-14T17:50:52.684Z,1002.2
2023-05-14T17:55:58.851Z,1002.2
2023-05-14T18:01:04.891Z,1002.2
2023-05-14T18:06:10.987Z,1002
2023-05-14T18:11:17.169Z,1002.1
2023-05-14T18:16:23.192Z,1002.2
2023-05-14T18:21:29.289Z,1002.4
2023-05-14T18:26:35.385Z,1002.4
2023-05-14T18:31:41.480Z,1002.3
2023-05-14T18:36:46.571Z,1002.5
2023-05-14T18:41:52.682Z,1002.4
2023-05-14T18:46:58.878Z,1002.4
2023-05-14T18:52:04.939Z,1002.4
2023-05-14T18:57:10.998Z,1002.4
2023-05-14T19:02:17.139Z,1002.4
2023-05-14T19:07:22.251Z,1002.5
2023-05-14T19:12:28.275Z,1002.5
2023-05-14T19:17:34.433Z,1002.5
2023-05-14T19:22:40.452Z,1002.5
2023-05-14T19:27:46.542Z,1002.5
2023-05-14T19:32:52.832Z,1002.4
2023-05-14T19:37:58.902Z,1002.4
2023-05-14T19:43:05.023Z,1002.4
2023-05-14T19:48:11.101Z,1002.3
2023-05-14T19:53:17.200Z,1002.3
2023-05-14T19:58:23.292Z,1002.2
2023-05-14T20:03:29.386Z,1002.1
2023-05-14T20:08:35.317Z,1002.1
2023-05-14T20:13:40.608Z,1002.2
2023-05-14T20:18:46.756Z,1002.1
2023-05-14T20:23:52.777Z,1002.1
2023-05-14T20:28:58.910Z,1002.2
2023-05-14T20:34:04.838Z,1002.1
2023-05-14T20:39:11.108Z,1002.1
2023-05-14T20:44:16.998Z,1002
2023-05-14T20:49:23.337Z,1002
2023-05-14T20:54:29.369Z,1001.9
2023-05-14T20:59:35.485Z,1001.9
2023-05-14T21:04:41.550Z,1001.9
2023-05-14T21:09:47.678Z,1001.8
2023-05-14T21:14:53.745Z,1001.8
2023-05-14T21:19:58.881Z,1001.8
2023-05-14T21:25:04.952Z,1001.9
2023-05-14T21:30:11.030Z,1001.8
2023-05-14T21:35:16.975Z,1001.8
2023-05-14T21:40:23.279Z,1001.9
2023-05-14T21:45:29.174Z,1001.8
2023-05-14T21:50:35.351Z,1001.8
2023-05-14T21:55:41.472Z,1001.7
2023-05-14T22:00:47.515Z,1001.7
2023-05-14T22:05:53.731Z,1001.7
2023-05-14T22:10:59.716Z,1001.8
2023-05-14T22:16:05.790Z,1001.8
2023-05-14T22:21:11.841Z,1001.7
2023-05-14T22:26:16.998Z,1001.7
2023-05-14T22:31:23.079Z,1001.5
2023-05-14T22:36:29.243Z,1001.5
2023-05-14T22:41:35.273Z,1001.5
2023-05-14T22:46:41.409Z,1001.5
2023-05-14T22:51:47.444Z,1001.4
2023-05-14T22:56:53.578Z,1001.4
2023-05-14T23:01:59.639Z,1001.5
2023-05-14T23:07:05.772Z,1001.5
2023-05-14T23:12:11.852Z,1001.5
2023-05-14T23:17:17.992Z,1001.3
2023-05-14T23:22:24.028Z,1001.3
2023-05-14T23:27:30.136Z,1001.3
2023-05-14T23:32:35.229Z,1001.2
2023-05-14T23:37:41.375Z,1001.2
2023-05-14T23:42:47.420Z,1001.2
2023-05-14T23:47:53.561Z,1001.1
2023-05-14T23:52:59.694Z,1001.1
2023-05-14T23:58:05.734Z,1001.1
